x

Buoy I01 - Eastern Maine Shelf (44034) Wave Buoy

6:04 - Tue 27th Sep 2016 All times are EDT. -4 hours from GMT.

  • Sig Wave height 2.6ft
  • Peak Period 5s
  • Wind
    11mph, 13mph gusts
  • Sea Temp 56°f
  • Luft Temp 57°f
  • Sea Pressure 1014.2mb
  • Buoy I01 - Eastern Maine Shelf
  • Buoy I01 - Eastern Maine Shelf

More Historic Weather Station data

Upgrade to MSW Pro to gain access to the past 30 days of data for over 8000 Wavebouys and Weather Stations around the globe.

Join Pro

Comparision Forecast

View Surf forecast
   
Di 09/27 6:04 2.5ft 5s 11 13 mph 1014.2mb 56f 57f
5:04 2.5ft 6s 7 9 mph 1013.2mb 56f 57f
4:04 3ft 6s 7 9 mph 1012mb 56f 57f
3:04 3ft 6s 4
mph
1012mb 56f 57f
2:04 3.5ft 6s 4
mph
1011.8mb 56f 56f
1:04 4ft 6s 4
mph
1011.9mb 55f 56f
12:04 3.5ft 6s 2
mph
1012.5mb 55f 56f
11:04 4ft 6s 4
mph
1012.7mb 55f 56f
10:04 3.5ft 5s 7
mph
1012.8mb 55f 56f
9:04 3.5ft 5s 11 13 mph 1013mb 55f 56f
8:04 3.5ft 5s 18 22 mph 1012.8mb 55f 57f
7:04 3.5ft 5s 16 18 mph 1012.7mb 55f 57f
6:04 2.5ft 4s 16 18 mph 1012.9mb 55f 57f
5:04 2.5ft 4s 13 16 mph 1013.4mb 55f 57f
4:04 2.5ft 4s 11 13 mph 1014.1mb 55f 57f
3:04 2.5ft 4s 13 16 mph 1014.7mb 55f 57f
2:04 2.5ft 4s 13 16 mph 1015.5mb 55f 56f
1:04 2ft 4s 11 13 mph 1016.2mb 55f 56f
12:04 2.5ft 4s 13 16 mph 1016.8mb 55f 55f
Mo 09/26 11:04 2.5ft 4s 13 16 mph 1017.1mb 55f 55f
10:04 2.5ft 5s 16 18 mph 1017.6mb 55f 55f
9:04 3ft 5s 16 18 mph 1017.9mb 55f 55f
8:04 2.5ft 4s 16 20 mph 1018.1mb 55f 55f
7:04 2.5ft 4s 18 20 mph 1018.3mb 55f 55f
6:04 2.5ft 3s 16 20 mph 1018.7mb 55f 55f
5:04 2ft 3s 18 22 mph 1018.5mb 56f 55f
4:04 1.6ft 3s 11 13 mph 1018.8mb 56f 56f
3:04 1.3ft 3s 11 13 mph 1019.5mb 56f 55f
2:04 1ft 3s 11 13 mph 1020mb 56f 54f
1:04 1ft 2s 9 11 mph 1020.8mb 55f 54f
12:04 1.3ft 3s 4 7 mph 1021.3mb 56f 54f
11:04 1.3ft 3s 4 7 mph 1021.4mb 55f 53f
10:04 1.6ft 3s 9
mph
1021.4mb 55f 51f
9:04 1.6ft 2s 9 11 mph 1021.2mb 55f 51f
8:04 2ft 3s 11 13 mph 1021.4mb 55f 51f
7:04 2ft 3s 13 16 mph 1021.1mb 55f 51f
6:04 2ft 3s 16 18 mph 1020.6mb 55f 50f
5:04 2ft 3s 18 20 mph 1020.2mb 55f 51f
4:04 2ft 3s 16 18 mph 1020.2mb 55f 51f
3:04 2ft 3s 18 20 mph 1020.1mb 55f 51f
2:04 2ft 3s 16 18 mph 1020.1mb 55f 52f
1:04 1.6ft 3s 13 18 mph 1020.1mb 55f 52f
12:04 2ft 3s 13 16 mph 1019.9mb 55f 53f
So 09/25 11:04 2ft 3s 16 18 mph 1019.7mb 55f 53f
10:04 2ft 3s 18 20 mph 1019.7mb 55f 54f
9:04 2.5ft 3s 18 20 mph 1019.3mb 55f 54f
8:04 2.5ft 3s 18 20 mph 1018.7mb 55f 54f
7:04 2ft 3s 16 18 mph 1017.8mb 55f 55f
6:04 2.5ft 3s 11 13 mph 1017.1mb 55f 54f
5:04 2ft 4s 13 18 mph 1016.3mb 55f 55f
4:04 2.5ft 3s 18 22 mph 1016.1mb 55f 55f
3:04 2.5ft 3s 16 18 mph 1016.1mb 55f 55f
2:04 2.5ft 3s 16 22 mph 1016mb 55f 54f
1:04 2.5ft 4s 18 22 mph 1016.4mb 55f 53f
12:04 2.5ft 3s 16 20 mph 1016.5mb 55f 53f
11:04 2.5ft 3s 18 20 mph 1016.5mb 55f 52f
10:04 2.5ft 3s 18 20 mph 1016.5mb 55f 51f
9:04 2.5ft 4s 16 20 mph 1016.6mb 55f 50f
8:04 2.5ft 3s 18 25 mph 1016.3mb 55f 49f
7:04 2.5ft 3s 18 22 mph 1016.2mb 55f 49f
6:04 2.5ft 3s 18 20 mph 1016.2mb 55f 49f
5:04 2.5ft 3s 20 22 mph 1015.8mb 55f 50f
4:04 2.5ft 4s 16 20 mph 1015.9mb 55f 50f
3:04 2.5ft 4s 16 20 mph 1016.1mb 55f 50f
2:04 2.5ft 4s 18 22 mph 1016.4mb 55f 51f
1:04 2.5ft 4s 22 29 mph 1016.2mb 55f 52f
12:04 2.5ft 4s 20 27 mph 1016.2mb 55f 53f
Sa 09/24 11:04 2ft 3s 18 22 mph 1015.9mb 55f 55f
10:04 1.3ft 3s 16 18 mph 1015.7mb 55f 56f
9:04 1.3ft 3s 13 18 mph 1015.4mb 55f 56f
8:04 1.3ft 3s 11 13 mph 1015.5mb 55f 57f
7:04 1.6ft 3s 9 13 mph 1015.2mb 55f 57f
6:04 2ft 3s 13 16 mph 1014.9mb 55f 58f
5:04 2ft 3s 16 20 mph 1015mb 55f 58f
4:04 2.5ft 4s 13 18 mph 1015mb 55f 58f
3:04 2.5ft 3s 16 18 mph 1015.4mb 56f 58f
2:04 2.5ft 3s 18 20 mph 1016mb 56f 57f
1:04 1.6ft 3s 13 16 mph 1016.7mb 56f 56f
12:04 2ft 3s 13 16 mph 1017.6mb 56f 55f
11:04 2ft 3s 18 20 mph 1018.1mb 56f 53f
10:04 2.5ft 3s 18 22 mph 1018.1mb 56f 53f
9:04 2.5ft 3s 20 22 mph 1018.1mb 55f 53f
8:04 2.5ft 3s 18 22 mph 1018.1mb 55f 53f
7:04 1.3ft 3s 13 16 mph 1018.6mb 55f 53f
6:04 1.3ft 3s 11 13 mph 1018.2mb 55f 54f
5:04 1.6ft 3s 9 11 mph 1017.4mb 55f 53f
4:04 1.3ft 3s 9 11 mph 1017.4mb 55f 54f
3:04 1.6ft 4s 11 13 mph 1017.8mb 55f 54f
2:04 2ft 4s 11 16 mph 1017.9mb 56f 55f
1:04 2ft 4s 16 20 mph 1017.7mb 56f 55f